sensor_id;sensor_type;location;lat;lon;timestamp;temperature;humidity
57390;DHT22;43217;52.694;6.214;2023-10-08T00:00:27;17.60;99.90
57390;DHT22;43217;52.694;6.214;2023-10-08T00:03:09;17.50;99.90
57390;DHT22;43217;52.694;6.214;2023-10-08T00:05:36;17.50;99.90
57390;DHT22;43217;52.694;6.214;2023-10-08T00:08:03;17.40;99.90
57390;DHT22;43217;52.694;6.214;2023-10-08T00:10:37;17.40;99.90
57390;DHT22;43217;52.694;6.214;2023-10-08T00:13:05;17.30;99.90
57390;DHT22;43217;52.694;6.214;2023-10-08T00:15:38;17.30;99.90
57390;DHT22;43217;52.694;6.214;2023-10-08T00:18:07;17.30;99.90
57390;DHT22;43217;52.694;6.214;2023-10-08T00:20:37;17.20;99.90
57390;DHT22;43217;52.694;6.214;2023-10-08T00:23:22;17.10;99.90
57390;DHT22;43217;52.694;6.214;2023-10-08T00:25:52;17.00;99.90
57390;DHT22;43217;52.694;6.214;2023-10-08T00:28:20;16.90;99.90
57390;DHT22;43217;52.694;6.214;2023-10-08T00:30:46;16.70;99.90
57390;DHT22;43217;52.694;6.214;2023-10-08T00:33:13;16.40;99.90
57390;DHT22;43217;52.694;6.214;2023-10-08T00:35:41;16.10;99.90
57390;DHT22;43217;52.694;6.214;2023-10-08T00:38:10;15.80;99.90
57390;DHT22;43217;52.694;6.214;2023-10-08T00:40:46;15.60;99.90
57390;DHT22;43217;52.694;6.214;2023-10-08T00:43:34;15.50;99.90
57390;DHT22;43217;52.694;6.214;2023-10-08T00:46:04;15.30;99.90
57390;DHT22;43217;52.694;6.214;2023-10-08T00:48:31;15.20;99.90
57390;DHT22;43217;52.694;6.214;2023-10-08T00:51:02;15.00;99.90
57390;DHT22;43217;52.694;6.214;2023-10-08T00:53:59;14.90;99.90
57390;DHT22;43217;52.694;6.214;2023-10-08T00:56:31;14.90;99.90
57390;DHT22;43217;52.694;6.214;2023-10-08T00:59:16;14.80;99.90
57390;DHT22;43217;52.694;6.214;2023-10-08T01:01:43;14.80;99.90
57390;DHT22;43217;52.694;6.214;2023-10-08T01:04:22;14.80;99.90
57390;DHT22;43217;52.694;6.214;2023-10-08T01:06:52;14.80;99.90
57390;DHT22;43217;52.694;6.214;2023-10-08T01:09:25;14.70;99.90
57390;DHT22;43217;52.694;6.214;2023-10-08T01:12:10;14.70;99.90
57390;DHT22;43217;52.694;6.214;2023-10-08T01:14:49;14.70;99.90
57390;DHT22;43217;52.694;6.214;2023-10-08T01:17:20;14.70;99.90
57390;DHT22;43217;52.694;6.214;2023-10-08T01:19:52;14.60;99.90
57390;DHT22;43217;52.694;6.214;2023-10-08T01:22:25;14.50;99.90
57390;DHT22;43217;52.694;6.214;2023-10-08T01:24:54;14.50;99.90
57390;DHT22;43217;52.694;6.214;2023-10-08T01:27:20;14.50;99.90
57390;DHT22;43217;52.694;6.214;2023-10-08T01:29:51;14.50;99.90
57390;DHT22;43217;52.694;6.214;2023-10-08T01:32:18;14.50;99.90
57390;DHT22;43217;52.694;6.214;2023-10-08T01:34:45;14.50;99.90
57390;DHT22;43217;52.694;6.214;2023-10-08T01:37:18;14.50;99.90
57390;DHT22;43217;52.694;6.214;2023-10-08T01:39:45;14.50;99.90
57390;DHT22;43217;52.694;6.214;2023-10-08T01:42:12;14.50;99.90
57390;DHT22;43217;52.694;6.214;2023-10-08T01:44:48;14.50;99.90
57390;DHT22;43217;52.694;6.214;2023-10-08T01:47:19;14.50;99.90
57390;DHT22;43217;52.694;6.214;2023-10-08T01:49:45;14.50;99.90
57390;DHT22;43217;52.694;6.214;2023-10-08T01:52:12;14.40;99.90
57390;DHT22;43217;52.694;6.214;2023-10-08T01:54:49;14.40;99.90
57390;DHT22;43217;52.694;6.214;2023-10-08T01:57:19;14.40;99.90
57390;DHT22;43217;52.694;6.214;2023-10-08T01:59:44;14.40;99.90
57390;DHT22;43217;52.694;6.214;2023-10-08T02:02:11;14.40;99.90
57390;DHT22;43217;52.694;6.214;2023-10-08T02:04:41;14.40;99.90
57390;DHT22;43217;52.694;6.214;2023-10-08T02:07:07;14.40;99.90
57390;DHT22;43217;52.694;6.214;2023-10-08T02:09:43;14.40;99.90
57390;DHT22;43217;52.694;6.214;2023-10-08T02:12:09;14.40;99.90
57390;DHT22;43217;52.694;6.214;2023-10-08T02:14:35;14.40;99.90
57390;DHT22;43217;52.694;6.214;2023-10-08T02:17:02;14.40;99.90
57390;DHT22;43217;52.694;6.214;2023-10-08T02:19:32;14.40;99.90
57390;DHT22;43217;52.694;6.214;2023-10-08T02:21:58;14.40;99.90
57390;DHT22;43217;52.694;6.214;2023-10-08T02:24:24;14.40;99.90
57390;DHT22;43217;52.694;6.214;2023-10-08T02:26:54;14.40;99.90
57390;DHT22;43217;52.694;6.214;2023-10-08T02:29:23;14.40;99.90
57390;DHT22;43217;52.694;6.214;2023-10-08T02:31:50;14.40;99.90
57390;DHT22;43217;52.694;6.214;2023-10-08T02:34:15;14.40;99.90
57390;DHT22;43217;52.694;6.214;2023-10-08T02:36:41;14.40;99.90
57390;DHT22;43217;52.694;6.214;2023-10-08T02:39:10;14.30;99.90
57390;DHT22;43217;52.694;6.214;2023-10-08T02:41:43;14.30;99.90
57390;DHT22;43217;52.694;6.214;2023-10-08T02:44:12;14.30;99.90
57390;DHT22;43217;52.694;6.214;2023-10-08T02:46:39;14.20;99.90
57390;DHT22;43217;52.694;6.214;2023-10-08T02:49:07;14.20;99.90
57390;DHT22;43217;52.694;6.214;2023-10-08T02:51:36;14.20;99.90
57390;DHT22;43217;52.694;6.214;2023-10-08T02:54:02;14.20;99.90
57390;DHT22;43217;52.694;6.214;2023-10-08T02:56:31;14.30;99.90
57390;DHT22;43217;52.694;6.214;2023-10-08T02:58:59;14.30;99.90
57390;DHT22;43217;52.694;6.214;2023-10-08T03:01:29;14.30;99.90
57390;DHT22;43217;52.694;6.214;2023-10-08T03:03:59;14.30;99.90
57390;DHT22;43217;52.694;6.214;2023-10-08T03:06:33;14.40;99.90
57390;DHT22;43217;52.694;6.214;2023-10-08T03:08:59;14.30;99.90
57390;DHT22;43217;52.694;6.214;2023-10-08T03:11:30;14.30;99.90
57390;DHT22;43217;52.694;6.214;2023-10-08T03:13:57;14.20;99.90
57390;DHT22;43217;52.694;6.214;2023-10-08T03:16:22;14.20;99.90
57390;DHT22;43217;52.694;6.214;2023-10-08T03:18:55;14.20;99.90
57390;DHT22;43217;52.694;6.214;2023-10-08T03:21:22;14.20;99.90
57390;DHT22;43217;52.694;6.214;2023-10-08T03:24:03;14.20;99.90
57390;DHT22;43217;52.694;6.214;2023-10-08T03:26:49;14.20;99.90
57390;DHT22;43217;52.694;6.214;2023-10-08T03:29:21;14.20;99.90
57390;DHT22;43217;52.694;6.214;2023-10-08T03:31:47;14.20;99.90
57390;DHT22;43217;52.694;6.214;2023-10-08T03:34:16;14.20;99.90
57390;DHT22;43217;52.694;6.214;2023-10-08T03:36:44;14.20;99.90
57390;DHT22;43217;52.694;6.214;2023-10-08T03:39:11;14.20;99.90
57390;DHT22;43217;52.694;6.214;2023-10-08T03:41:40;14.30;99.90
57390;DHT22;43217;52.694;6.214;2023-10-08T03:44:07;14.30;99.90
57390;DHT22;43217;52.694;6.214;2023-10-08T03:46:40;14.20;99.90
57390;DHT22;43217;52.694;6.214;2023-10-08T03:49:12;14.20;99.90
57390;DHT22;43217;52.694;6.214;2023-10-08T03:51:51;14.20;99.90
57390;DHT22;43217;52.694;6.214;2023-10-08T03:54:24;14.20;99.90
57390;DHT22;43217;52.694;6.214;2023-10-08T03:57:10;14.30;99.90
57390;DHT22;43217;52.694;6.214;2023-10-08T03:59:43;14.20;99.90
57390;DHT22;43217;52.694;6.214;2023-10-08T04:02:09;14.20;99.90
57390;DHT22;43217;52.694;6.214;2023-10-08T04:04:43;14.20;99.90
57390;DHT22;43217;52.694;6.214;2023-10-08T04:07:26;14.20;99.90
57390;DHT22;43217;52.694;6.214;2023-10-08T04:10:14;14.30;99.90
57390;DHT22;43217;52.694;6.214;2023-10-08T04:13:05;14.30;99.90
57390;DHT22;43217;52.694;6.214;2023-10-08T04:15:40;14.20;99.90
57390;DHT22;43217;52.694;6.214;2023-10-08T04:18:10;14.20;99.90
57390;DHT22;43217;52.694;6.214;2023-10-08T04:20:36;14.20;99.90
57390;DHT22;43217;52.694;6.214;2023-10-08T04:23:06;14.20;99.90
57390;DHT22;43217;52.694;6.214;2023-10-08T04:25:39;14.20;99.90
57390;DHT22;43217;52.694;6.214;2023-10-08T04:28:05;14.20;99.90
57390;DHT22;43217;52.694;6.214;2023-10-08T04:30:35;14.20;99.90
57390;DHT22;43217;52.694;6.214;2023-10-08T04:33:05;14.10;99.90
57390;DHT22;43217;52.694;6.214;2023-10-08T04:35:39;14.10;99.90
57390;DHT22;43217;52.694;6.214;2023-10-08T04:38:20;14.10;99.90
57390;DHT22;43217;52.694;6.214;2023-10-08T04:40:50;14.10;99.90
57390;DHT22;43217;52.694;6.214;2023-10-08T04:43:35;14.10;99.90
57390;DHT22;43217;52.694;6.214;2023-10-08T04:46:04;14.00;99.90
57390;DHT22;43217;52.694;6.214;2023-10-08T04:48:47;13.90;99.90
57390;DHT22;43217;52.694;6.214;2023-10-08T04:51:15;13.90;99.90
57390;DHT22;43217;52.694;6.214;2023-10-08T04:53:44;13.80;99.90
57390;DHT22;43217;52.694;6.214;2023-10-08T04:56:12;13.80;99.90
57390;DHT22;43217;52.694;6.214;2023-10-08T04:58:45;13.90;99.90
57390;DHT22;43217;52.694;6.214;2023-10-08T05:01:14;13.80;99.90
57390;DHT22;43217;52.694;6.214;2023-10-08T05:03:48;13.80;99.90
57390;DHT22;43217;52.694;6.214;2023-10-08T05:06:40;13.90;99.90
57390;DHT22;43217;52.694;6.214;2023-10-08T05:09:16;13.90;99.90
57390;DHT22;43217;52.694;6.214;2023-10-08T05:11:50;13.80;99.90
57390;DHT22;43217;52.694;6.214;2023-10-08T05:14:23;13.90;99.90
57390;DHT22;43217;52.694;6.214;2023-10-08T05:16:59;13.80;99.90
57390;DHT22;43217;52.694;6.214;2023-10-08T05:19:49;13.80;99.90
57390;DHT22;43217;52.694;6.214;2023-10-08T05:22:45;13.90;99.90
57390;DHT22;43217;52.694;6.214;2023-10-08T05:25:20;13.90;99.90
57390;DHT22;43217;52.694;6.214;2023-10-08T05:27:46;13.80;99.90
57390;DHT22;43217;52.694;6.214;2023-10-08T05:30:15;13.90;99.90
57390;DHT22;43217;52.694;6.214;2023-10-08T05:32:45;13.90;99.90
57390;DHT22;43217;52.694;6.214;2023-10-08T05:35:30;13.80;99.90
57390;DHT22;43217;52.694;6.214;2023-10-08T05:38:08;13.90;99.90
57390;DHT22;43217;52.694;6.214;2023-10-08T05:40:53;13.80;99.90
57390;DHT22;43217;52.694;6.214;2023-10-08T05:43:27;13.80;99.90
57390;DHT22;43217;52.694;6.214;2023-10-08T05:46:09;13.90;99.90
57390;DHT22;43217;52.694;6.214;2023-10-08T05:49:05;13.80;99.90
57390;DHT22;43217;52.694;6.214;2023-10-08T05:51:38;13.80;99.90
57390;DHT22;43217;52.694;6.214;2023-10-08T05:54:31;13.90;99.90
57390;DHT22;43217;52.694;6.214;2023-10-08T05:57:00;13.80;99.90
57390;DHT22;43217;52.694;6.214;2023-10-08T05:59:46;13.90;99.90
57390;DHT22;43217;52.694;6.214;2023-10-08T06:02:22;13.90;99.90
57390;DHT22;43217;52.694;6.214;2023-10-08T06:05:01;13.90;99.90
57390;DHT22;43217;52.694;6.214;2023-10-08T06:07:44;13.90;99.90
57390;DHT22;43217;52.694;6.214;2023-10-08T06:10:20;13.90;99.90
57390;DHT22;43217;52.694;6.214;2023-10-08T06:13:12;13.90;99.90
57390;DHT22;43217;52.694;6.214;2023-10-08T06:15:57;13.90;99.90
57390;DHT22;43217;52.694;6.214;2023-10-08T06:18:27;13.80;99.90
57390;DHT22;43217;52.694;6.214;2023-10-08T06:20:57;13.80;99.90
57390;DHT22;43217;52.694;6.214;2023-10-08T06:23:24;13.80;99.90
57390;DHT22;43217;52.694;6.214;2023-10-08T06:25:51;13.80;99.90
57390;DHT22;43217;52.694;6.214;2023-10-08T06:28:25;13.80;99.90
57390;DHT22;43217;52.694;6.214;2023-10-08T06:30:54;13.80;99.90
57390;DHT22;43217;52.694;6.214;2023-10-08T06:33:21;13.80;99.90
57390;DHT22;43217;52.694;6.214;2023-10-08T06:35:48;13.70;99.90
57390;DHT22;43217;52.694;6.214;2023-10-08T06:38:34;13.70;99.90
57390;DHT22;43217;52.694;6.214;2023-10-08T06:41:01;13.80;99.90
57390;DHT22;43217;52.694;6.214;2023-10-08T06:43:46;13.80;99.90
57390;DHT22;43217;52.694;6.214;2023-10-08T06:46:13;13.80;99.90
57390;DHT22;43217;52.694;6.214;2023-10-08T06:48:40;13.80;99.90
57390;DHT22;43217;52.694;6.214;2023-10-08T06:51:12;13.90;99.90
57390;DHT22;43217;52.694;6.214;2023-10-08T06:53:42;13.80;99.90
57390;DHT22;43217;52.694;6.214;2023-10-08T06:56:12;13.80;99.90
57390;DHT22;43217;52.694;6.214;2023-10-08T06:58:39;13.80;99.90
57390;DHT22;43217;52.694;6.214;2023-10-08T07:01:11;13.80;99.90
57390;DHT22;43217;52.694;6.214;2023-10-08T07:03:38;13.80;99.90
57390;DHT22;43217;52.694;6.214;2023-10-08T07:06:04;13.80;99.90
57390;DHT22;43217;52.694;6.214;2023-10-08T07:08:43;13.80;99.90
57390;DHT22;43217;52.694;6.214;2023-10-08T07:11:12;13.80;99.90
57390;DHT22;43217;52.694;6.214;2023-10-08T07:13:39;13.90;99.90
57390;DHT22;43217;52.694;6.214;2023-10-08T07:16:07;13.80;99.90
57390;DHT22;43217;52.694;6.214;2023-10-08T07:18:37;13.90;99.90
57390;DHT22;43217;52.694;6.214;2023-10-08T07:21:03;13.90;99.90
57390;DHT22;43217;52.694;6.214;2023-10-08T07:23:38;14.00;99.90
57390;DHT22;43217;52.694;6.214;2023-10-08T07:26:19;14.00;99.90
57390;DHT22;43217;52.694;6.214;2023-10-08T07:28:50;14.10;99.90
57390;DHT22;43217;52.694;6.214;2023-10-08T07:31:21;14.10;99.90
57390;DHT22;43217;52.694;6.214;2023-10-08T07:33:48;14.10;99.90
57390;DHT22;43217;52.694;6.214;2023-10-08T07:36:45;14.10;99.90
57390;DHT22;43217;52.694;6.214;2023-10-08T07:39:19;14.10;99.90
57390;DHT22;43217;52.694;6.214;2023-10-08T07:41:53;14.10;99.90
57390;DHT22;43217;52.694;6.214;2023-10-08T07:44:22;14.00;99.90
57390;DHT22;43217;52.694;6.214;2023-10-08T07:46:49;14.10;99.90
57390;DHT22;43217;52.694;6.214;2023-10-08T07:49:18;14.10;99.90
57390;DHT22;43217;52.694;6.214;2023-10-08T07:51:44;14.20;99.90
57390;DHT22;43217;52.694;6.214;2023-10-08T07:54:26;14.20;99.90
57390;DHT22;43217;52.694;6.214;2023-10-08T07:57:12;14.20;99.90
57390;DHT22;43217;52.694;6.214;2023-10-08T07:59:46;14.10;99.90
57390;DHT22;43217;52.694;6.214;2023-10-08T08:02:13;14.20;99.90
57390;DHT22;43217;52.694;6.214;2023-10-08T08:04:45;14.20;99.90
57390;DHT22;43217;52.694;6.214;2023-10-08T08:07:16;14.20;99.90
57390;DHT22;43217;52.694;6.214;2023-10-08T08:09:46;14.20;99.90
57390;DHT22;43217;52.694;6.214;2023-10-08T08:12:24;14.20;99.90
57390;DHT22;43217;52.694;6.214;2023-10-08T08:14:58;14.30;99.90
57390;DHT22;43217;52.694;6.214;2023-10-08T08:17:24;14.30;99.90
57390;DHT22;43217;52.694;6.214;2023-10-08T08:19:51;14.30;99.90
57390;DHT22;43217;52.694;6.214;2023-10-08T08:22:29;14.30;99.90
57390;DHT22;43217;52.694;6.214;2023-10-08T08:25:06;14.30;99.90
57390;DHT22;43217;52.694;6.214;2023-10-08T08:27:44;14.40;99.90
57390;DHT22;43217;52.694;6.214;2023-10-08T08:30:12;14.40;99.90
57390;DHT22;43217;52.694;6.214;2023-10-08T08:32:41;14.50;99.90
57390;DHT22;43217;52.694;6.214;2023-10-08T08:35:14;14.50;99.90
57390;DHT22;43217;52.694;6.214;2023-10-08T08:37:45;14.60;99.90
57390;DHT22;43217;52.694;6.214;2023-10-08T08:40:18;14.70;99.90
57390;DHT22;43217;52.694;6.214;2023-10-08T08:42:52;14.70;99.90
57390;DHT22;43217;52.694;6.214;2023-10-08T08:45:23;14.70;99.90
57390;DHT22;43217;52.694;6.214;2023-10-08T08:47:52;14.80;99.90
57390;DHT22;43217;52.694;6.214;2023-10-08T08:50:18;14.90;99.90
57390;DHT22;43217;52.694;6.214;2023-10-08T08:52:45;14.90;99.90
57390;DHT22;43217;52.694;6.214;2023-10-08T08:55:13;14.90;99.90
57390;DHT22;43217;52.694;6.214;2023-10-08T08:57:52;14.90;99.90
57390;DHT22;43217;52.694;6.214;2023-10-08T09:00:19;14.90;99.90
57390;DHT22;43217;52.694;6.214;2023-10-08T09:02:46;14.90;99.90
57390;DHT22;43217;52.694;6.214;2023-10-08T09:05:13;14.90;99.90
57390;DHT22;43217;52.694;6.214;2023-10-08T09:07:59;14.90;99.90
57390;DHT22;43217;52.694;6.214;2023-10-08T09:10:29;14.90;99.90
57390;DHT22;43217;52.694;6.214;2023-10-08T09:12:56;15.00;99.90
57390;DHT22;43217;52.694;6.214;2023-10-08T09:15:28;15.00;99.90
57390;DHT22;43217;52.694;6.214;2023-10-08T09:17:57;15.00;99.90
57390;DHT22;43217;52.694;6.214;2023-10-08T09:20:26;15.10;99.90
57390;DHT22;43217;52.694;6.214;2023-10-08T09:23:08;15.10;99.90
57390;DHT22;43217;52.694;6.214;2023-10-08T09:25:38;15.10;99.90
57390;DHT22;43217;52.694;6.214;2023-10-08T09:28:05;15.10;99.90
57390;DHT22;43217;52.694;6.214;2023-10-08T09:30:35;15.10;99.90
57390;DHT22;43217;52.694;6.214;2023-10-08T09:33:12;15.20;99.90
57390;DHT22;43217;52.694;6.214;2023-10-08T09:35:38;15.20;99.90
57390;DHT22;43217;52.694;6.214;2023-10-08T09:38:05;15.20;99.90
57390;DHT22;43217;52.694;6.214;2023-10-08T09:40:36;15.20;99.90
57390;DHT22;43217;52.694;6.214;2023-10-08T09:43:04;15.20;99.90
57390;DHT22;43217;52.694;6.214;2023-10-08T09:45:30;15.30;99.90
57390;DHT22;43217;52.694;6.214;2023-10-08T09:47:56;15.30;99.90
57390;DHT22;43217;52.694;6.214;2023-10-08T09:50:33;15.30;99.90
57390;DHT22;43217;52.694;6.214;2023-10-08T09:53:12;15.40;99.90
57390;DHT22;43217;52.694;6.214;2023-10-08T09:55:55;15.40;99.90
57390;DHT22;43217;52.694;6.214;2023-10-08T09:58:28;15.40;99.90
57390;DHT22;43217;52.694;6.214;2023-10-08T10:00:56;15.50;99.90
57390;DHT22;43217;52.694;6.214;2023-10-08T10:03:24;15.50;99.90
57390;DHT22;43217;52.694;6.214;2023-10-08T10:05:51;15.60;99.90
57390;DHT22;43217;52.694;6.214;2023-10-08T10:08:17;15.70;99.90
57390;DHT22;43217;52.694;6.214;2023-10-08T10:10:43;15.80;99.90
57390;DHT22;43217;52.694;6.214;2023-10-08T10:13:16;15.90;99.90
57390;DHT22;43217;52.694;6.214;2023-10-08T10:15:43;16.00;99.90
57390;DHT22;43217;52.694;6.214;2023-10-08T10:20:53;16.10;99.90
57390;DHT22;43217;52.694;6.214;2023-10-08T10:23:42;16.20;99.90
57390;DHT22;43217;52.694;6.214;2023-10-08T10:26:31;16.20;99.90
57390;DHT22;43217;52.694;6.214;2023-10-08T10:31:41;16.20;99.90
57390;DHT22;43217;52.694;6.214;2023-10-08T10:34:13;16.20;99.90
57390;DHT22;43217;52.694;6.214;2023-10-08T10:36:42;16.30;99.90
57390;DHT22;43217;52.694;6.214;2023-10-08T10:39:12;16.40;99.90
57390;DHT22;43217;52.694;6.214;2023-10-08T10:41:52;16.40;99.90
57390;DHT22;43217;52.694;6.214;2023-10-08T10:44:28;16.40;99.90
57390;DHT22;43217;52.694;6.214;2023-10-08T10:46:58;16.40;99.90
57390;DHT22;43217;52.694;6.214;2023-10-08T10:49:49;16.40;99.90
57390;DHT22;43217;52.694;6.214;2023-10-08T10:52:26;16.40;99.90
57390;DHT22;43217;52.694;6.214;2023-10-08T10:55:07;16.40;99.90
57390;DHT22;43217;52.694;6.214;2023-10-08T10:57:56;16.40;99.90
57390;DHT22;43217;52.694;6.214;2023-10-08T11:00:26;16.40;99.90
57390;DHT22;43217;52.694;6.214;2023-10-08T11:02:58;16.40;99.90
57390;DHT22;43217;52.694;6.214;2023-10-08T11:05:41;16.30;99.90
57390;DHT22;43217;52.694;6.214;2023-10-08T11:08:13;16.20;99.90
57390;DHT22;43217;52.694;6.214;2023-10-08T11:10:42;16.10;99.90
57390;DHT22;43217;52.694;6.214;2023-10-08T11:13:19;16.10;99.90
57390;DHT22;43217;52.694;6.214;2023-10-08T11:15:47;16.00;99.90
57390;DHT22;43217;52.694;6.214;2023-10-08T11:18:24;16.00;99.90
57390;DHT22;43217;52.694;6.214;2023-10-08T11:20:52;16.10;99.90
57390;DHT22;43217;52.694;6.214;2023-10-08T11:23:47;16.20;99.90
57390;DHT22;43217;52.694;6.214;2023-10-08T11:26:19;16.30;99.90
57390;DHT22;43217;52.694;6.214;2023-10-08T11:28:45;16.30;99.90
57390;DHT22;43217;52.694;6.214;2023-10-08T11:31:17;16.40;99.90
57390;DHT22;43217;52.694;6.214;2023-10-08T11:33:47;16.50;99.90
57390;DHT22;43217;52.694;6.214;2023-10-08T11:36:23;16.50;99.90
57390;DHT22;43217;52.694;6.214;2023-10-08T11:38:56;16.50;99.90
57390;DHT22;43217;52.694;6.214;2023-10-08T11:41:31;16.50;99.90
57390;DHT22;43217;52.694;6.214;2023-10-08T11:44:09;16.50;99.90
57390;DHT22;43217;52.694;6.214;2023-10-08T11:46:40;16.50;99.90
57390;DHT22;43217;52.694;6.214;2023-10-08T11:49:09;16.60;99.90
57390;DHT22;43217;52.694;6.214;2023-10-08T11:51:44;16.60;99.90
57390;DHT22;43217;52.694;6.214;2023-10-08T11:54:11;16.70;99.90
57390;DHT22;43217;52.694;6.214;2023-10-08T11:56:38;16.90;99.90
57390;DHT22;43217;52.694;6.214;2023-10-08T11:59:05;16.90;99.90
57390;DHT22;43217;52.694;6.214;2023-10-08T12:01:38;16.90;99.90
57390;DHT22;43217;52.694;6.214;2023-10-08T12:04:08;17.00;99.90
57390;DHT22;43217;52.694;6.214;2023-10-08T12:06:42;16.90;99.90
57390;DHT22;43217;52.694;6.214;2023-10-08T12:09:17;17.00;99.90
57390;DHT22;43217;52.694;6.214;2023-10-08T12:11:50;17.00;99.90
57390;DHT22;43217;52.694;6.214;2023-10-08T12:14:16;17.00;99.90
57390;DHT22;43217;52.694;6.214;2023-10-08T12:16:42;17.20;99.90
57390;DHT22;43217;52.694;6.214;2023-10-08T12:19:11;17.20;99.90
57390;DHT22;43217;52.694;6.214;2023-10-08T12:21:44;17.20;99.90
57390;DHT22;43217;52.694;6.214;2023-10-08T12:24:13;17.20;99.90
57390;DHT22;43217;52.694;6.214;2023-10-08T12:26:40;17.20;99.90
57390;DHT22;43217;52.694;6.214;2023-10-08T12:29:12;17.20;99.90
57390;DHT22;43217;52.694;6.214;2023-10-08T12:31:40;17.20;99.90
57390;DHT22;43217;52.694;6.214;2023-10-08T12:34:06;17.20;99.90
57390;DHT22;43217;52.694;6.214;2023-10-08T12:36:31;17.20;99.90
57390;DHT22;43217;52.694;6.214;2023-10-08T12:39:02;17.30;99.90
57390;DHT22;43217;52.694;6.214;2023-10-08T12:41:44;17.30;99.90
57390;DHT22;43217;52.694;6.214;2023-10-08T12:44:11;17.30;99.90
57390;DHT22;43217;52.694;6.214;2023-10-08T12:46:37;17.20;99.90
57390;DHT22;43217;52.694;6.214;2023-10-08T12:49:03;17.20;99.90
57390;DHT22;43217;52.694;6.214;2023-10-08T12:51:29;17.20;99.90
57390;DHT22;43217;52.694;6.214;2023-10-08T12:53:59;17.20;99.90
57390;DHT22;43217;52.694;6.214;2023-10-08T12:56:29;17.20;99.90
57390;DHT22;43217;52.694;6.214;2023-10-08T12:59:04;17.10;99.90
57390;DHT22;43217;52.694;6.214;2023-10-08T13:01:36;17.00;99.90
57390;DHT22;43217;52.694;6.214;2023-10-08T13:04:06;17.00;99.90
57390;DHT22;43217;52.694;6.214;2023-10-08T13:06:41;17.00;99.90
57390;DHT22;43217;52.694;6.214;2023-10-08T13:09:10;17.00;99.90
57390;DHT22;43217;52.694;6.214;2023-10-08T13:11:39;17.00;99.90
57390;DHT22;43217;52.694;6.214;2023-10-08T13:14:06;17.00;99.90
57390;DHT22;43217;52.694;6.214;2023-10-08T13:16:32;17.00;99.90
57390;DHT22;43217;52.694;6.214;2023-10-08T13:18:58;17.00;99.90
57390;DHT22;43217;52.694;6.214;2023-10-08T13:21:25;17.00;99.90
57390;DHT22;43217;52.694;6.214;2023-10-08T13:23:54;17.10;99.90
57390;DHT22;43217;52.694;6.214;2023-10-08T13:26:23;17.10;99.90
57390;DHT22;43217;52.694;6.214;2023-10-08T13:28:52;17.10;99.90
57390;DHT22;43217;52.694;6.214;2023-10-08T13:31:17;17.00;99.90
57390;DHT22;43217;52.694;6.214;2023-10-08T13:33:45;17.00;99.90
57390;DHT22;43217;52.694;6.214;2023-10-08T13:36:14;17.00;99.90
57390;DHT22;43217;52.694;6.214;2023-10-08T13:38:41;17.00;99.90
57390;DHT22;43217;52.694;6.214;2023-10-08T13:41:07;17.00;99.90
57390;DHT22;43217;52.694;6.214;2023-10-08T13:46:16;16.90;99.90
57390;DHT22;43217;52.694;6.214;2023-10-08T13:48:45;17.00;99.90
57390;DHT22;43217;52.694;6.214;2023-10-08T13:51:17;17.00;99.90
57390;DHT22;43217;52.694;6.214;2023-10-08T13:53:50;16.90;99.90
57390;DHT22;43217;52.694;6.214;2023-10-08T13:56:20;16.90;99.90
57390;DHT22;43217;52.694;6.214;2023-10-08T13:58:51;16.90;99.90
57390;DHT22;43217;52.694;6.214;2023-10-08T14:01:17;16.90;99.90
57390;DHT22;43217;52.694;6.214;2023-10-08T14:03:49;16.90;99.90
57390;DHT22;43217;52.694;6.214;2023-10-08T14:06:22;17.00;99.90
57390;DHT22;43217;52.694;6.214;2023-10-08T14:08:48;17.00;99.90
57390;DHT22;43217;52.694;6.214;2023-10-08T14:11:21;17.10;99.90
57390;DHT22;43217;52.694;6.214;2023-10-08T14:13:52;17.10;99.90
57390;DHT22;43217;52.694;6.214;2023-10-08T14:16:19;17.10;99.90
57390;DHT22;43217;52.694;6.214;2023-10-08T14:18:50;17.10;99.90
57390;DHT22;43217;52.694;6.214;2023-10-08T14:21:22;17.10;99.90
57390;DHT22;43217;52.694;6.214;2023-10-08T14:23:56;17.00;99.90
57390;DHT22;43217;52.694;6.214;2023-10-08T14:26:22;16.90;99.90
57390;DHT22;43217;52.694;6.214;2023-10-08T14:28:49;16.90;99.90
57390;DHT22;43217;52.694;6.214;2023-10-08T14:31:24;16.80;99.90
57390;DHT22;43217;52.694;6.214;2023-10-08T14:33:52;16.80;99.90
57390;DHT22;43217;52.694;6.214;2023-10-08T14:36:48;16.80;99.90
57390;DHT22;43217;52.694;6.214;2023-10-08T14:39:33;16.80;99.90
57390;DHT22;43217;52.694;6.214;2023-10-08T14:42:18;16.80;99.90
57390;DHT22;43217;52.694;6.214;2023-10-08T14:45:03;16.80;99.90
57390;DHT22;43217;52.694;6.214;2023-10-08T14:47:31;16.80;99.90
57390;DHT22;43217;52.694;6.214;2023-10-08T14:49:57;16.80;99.90
57390;DHT22;43217;52.694;6.214;2023-10-08T14:52:22;16.80;99.90
57390;DHT22;43217;52.694;6.214;2023-10-08T14:54:50;16.80;99.90
57390;DHT22;43217;52.694;6.214;2023-10-08T14:57:17;16.80;99.90
57390;DHT22;43217;52.694;6.214;2023-10-08T14:59:44;16.80;99.90
57390;DHT22;43217;52.694;6.214;2023-10-08T15:02:11;16.80;99.90
57390;DHT22;43217;52.694;6.214;2023-10-08T15:04:37;16.80;99.90
57390;DHT22;43217;52.694;6.214;2023-10-08T15:07:06;16.80;99.90
57390;DHT22;43217;52.694;6.214;2023-10-08T15:09:37;16.80;99.90
57390;DHT22;43217;52.694;6.214;2023-10-08T15:12:05;16.70;99.90
57390;DHT22;43217;52.694;6.214;2023-10-08T15:14:32;16.70;99.90
57390;DHT22;43217;52.694;6.214;2023-10-08T15:16:58;16.60;99.90
57390;DHT22;43217;52.694;6.214;2023-10-08T15:19:28;16.60;99.90
57390;DHT22;43217;52.694;6.214;2023-10-08T15:21:56;16.60;99.90
57390;DHT22;43217;52.694;6.214;2023-10-08T15:24:24;16.60;99.90
57390;DHT22;43217;52.694;6.214;2023-10-08T15:26:54;16.60;99.90
57390;DHT22;43217;52.694;6.214;2023-10-08T15:29:23;16.60;99.90
57390;DHT22;43217;52.694;6.214;2023-10-08T15:31:53;16.50;99.90
57390;DHT22;43217;52.694;6.214;2023-10-08T15:34:21;16.50;99.90
57390;DHT22;43217;52.694;6.214;2023-10-08T15:36:46;16.40;99.90
57390;DHT22;43217;52.694;6.214;2023-10-08T15:39:12;16.40;99.90
57390;DHT22;43217;52.694;6.214;2023-10-08T15:41:38;16.40;99.90
57390;DHT22;43217;52.694;6.214;2023-10-08T15:44:05;16.40;99.90
57390;DHT22;43217;52.694;6.214;2023-10-08T15:46:32;16.30;99.90
57390;DHT22;43217;52.694;6.214;2023-10-08T15:49:03;16.30;99.90
57390;DHT22;43217;52.694;6.214;2023-10-08T15:51:30;16.20;99.90
57390;DHT22;43217;52.694;6.214;2023-10-08T15:54:00;16.20;99.90
57390;DHT22;43217;52.694;6.214;2023-10-08T15:56:29;16.10;99.90
57390;DHT22;43217;52.694;6.214;2023-10-08T15:58:55;16.20;99.90
57390;DHT22;43217;52.694;6.214;2023-10-08T16:01:24;16.10;99.90
57390;DHT22;43217;52.694;6.214;2023-10-08T16:03:53;16.00;99.90
57390;DHT22;43217;52.694;6.214;2023-10-08T16:06:19;16.00;99.90